Time;durP1;ratioP1;P1;durP2;ratioP2;P2;SDS_P1;SDS_P2;PMS_P1;PMS_P2;Temp;Humidity;BMP_temperature;BMP_pressure;BME280_temperature;BME280_humidity;BME280_pressure;Samples;Min_cycle;Max_cycle;Signal;HPM_P1;HPM_P2
2021/03/01 00:02:13;;;;;;;5.65;2.80;;;;;;;9.08;37.70;101971.28;5032443;28;20563;-73
2021/03/01 00:04:40;;;;;;;8.10;4.43;;;;;;;9.09;37.62;101966.94;5032991;28;20385;-73
2021/03/01 00:07:06;;;;;;;5.68;2.85;;;;;;;9.07;37.96;101960.91;5032174;23;20041;-73
2021/03/01 00:09:33;;;;;;;11.57;4.05;;;;;;;9.12;37.89;101966.91;5012873;28;20081;-73
2021/03/01 00:11:59;;;;;;;4.60;3.00;;;;;;;9.02;37.65;101966.19;5013245;28;20041;-73
2021/03/01 00:14:26;;;;;;;5.60;3.00;;;;;;;9.05;37.75;101957.47;5012241;28;20044;-75
2021/03/01 00:16:53;;;;;;;4.25;3.85;;;;;;;9.02;37.86;101967.94;5013496;28;20038;-74
2021/03/01 00:19:20;;;;;;;6.63;3.97;;;;;;;9.05;37.80;101960.06;5012774;28;20500;-73
2021/03/01 00:21:46;;;;;;;6.65;3.03;;;;;;;9.11;37.27;101960.00;5012478;28;20377;-74
2021/03/01 00:24:13;;;;;;;4.90;3.47;;;;;;;9.12;37.25;101954.75;5013090;28;20042;-73
2021/03/01 00:26:39;;;;;;;7.63;3.80;;;;;;;9.12;37.35;101959.09;5013160;28;20042;-74
2021/03/01 00:29:06;;;;;;;3.97;3.10;;;;;;;9.15;37.24;101961.63;5012449;28;20116;-73
2021/03/01 00:31:32;;;;;;;5.90;3.08;;;;;;;9.07;37.57;101964.38;5012628;28;20117;-73
2021/03/01 00:33:59;;;;;;;7.55;3.55;;;;;;;9.11;37.62;101960.00;5013264;28;20046;-73
2021/03/01 00:36:25;;;;;;;5.72;3.20;;;;;;;8.98;37.48;101961.91;5011909;28;20468;-73
2021/03/01 00:38:52;;;;;;;4.55;2.45;;;;;;;9.05;37.43;101960.91;5013200;28;20049;-73
2021/03/01 00:41:18;;;;;;;6.25;3.90;;;;;;;9.02;37.46;101960.13;5012482;28;20046;-73
2021/03/01 00:43:45;;;;;;;5.32;3.03;;;;;;;8.99;37.62;101963.63;5012920;28;20459;-73
2021/03/01 00:46:11;;;;;;;4.47;3.10;;;;;;;8.93;37.43;101956.78;5012302;28;20037;-72
2021/03/01 00:48:37;;;;;;;7.50;3.30;;;;;;;8.97;37.72;101960.22;5012540;28;20045;-72
2021/03/01 00:51:04;;;;;;;5.60;3.17;;;;;;;8.83;37.60;101962.16;5012596;28;20062;-72
2021/03/01 00:53:30;;;;;;;4.50;2.67;;;;;;;8.76;37.86;101963.13;5011957;28;20042;-73
2021/03/01 00:55:57;;;;;;;3.60;2.88;;;;;;;8.84;38.12;101967.34;5012698;28;20045;-72
2021/03/01 00:58:23;;;;;;;3.70;2.97;;;;;;;8.91;38.17;101968.97;5012211;28;20501;-72
2021/03/01 01:00:51;;;;;;;4.68;3.30;;;;;;;8.85;37.69;101960.41;5027688;28;20500;-72
2021/03/01 01:03:20;;;;;;;4.40;3.60;;;;;;;8.88;37.77;101955.13;5009825;28;20100;-72
2021/03/01 01:06:02;;;;;;;4.47;3.38;;;;;;;8.92;37.83;101952.47;5013841;28;20045;-72
2021/03/01 01:08:28;;;;;;;3.10;2.83;;;;;;;8.88;37.54;101952.53;5016050;28;20041;-72
2021/03/01 01:10:55;;;;;;;4.85;3.05;;;;;;;8.96;37.83;101948.09;5016679;28;20132;-72
2021/03/01 01:13:21;;;;;;;6.47;3.63;;;;;;;8.89;37.78;101947.34;5016404;28;20045;-71
2021/03/01 01:15:48;;;;;;;9.77;3.22;;;;;;;8.86;37.67;101956.91;5016655;28;20042;-71
2021/03/01 01:18:14;;;;;;;7.28;2.95;;;;;;;8.83;37.33;101952.59;5016417;28;20129;-71
2021/03/01 01:20:41;;;;;;;4.38;2.90;;;;;;;8.88;37.56;101945.59;5016200;28;20129;-71
2021/03/01 01:23:08;;;;;;;3.33;2.90;;;;;;;8.89;37.38;101943.84;5016537;28;20042;-71
2021/03/01 01:25:35;;;;;;;7.20;3.30;;;;;;;8.93;37.53;101946.38;5015761;28;20125;-71
2021/03/01 01:28:01;;;;;;;6.40;3.88;;;;;;;8.93;37.42;101945.53;5016099;28;20056;-71
2021/03/01 01:30:28;;;;;;;3.80;2.72;;;;;;;8.89;37.21;101947.34;5015448;28;20041;-71
2021/03/01 01:32:54;;;;;;;7.63;2.83;;;;;;;8.91;37.25;101940.34;5015882;28;20484;-71
2021/03/01 01:35:21;;;;;;;4.95;3.13;;;;;;;8.94;37.36;101939.44;5016264;28;20064;-71
2021/03/01 01:37:48;;;;;;;5.70;3.22;;;;;;;8.85;37.40;101934.41;5015672;28;20049;-71
2021/03/01 01:40:18;;;;;;;5.15;3.75;;;;;;;8.85;37.57;101927.47;5016093;28;20034;-72
2021/03/01 01:42:45;;;;;;;4.05;2.85;;;;;;;8.95;37.60;101935.97;5015416;28;20045;-71
2021/03/01 01:45:14;;;;;;;5.15;3.08;;;;;;;8.91;37.45;101931.69;5014942;28;20056;-71
2021/03/01 01:47:42;;;;;;;6.57;3.60;;;;;;;8.91;37.71;101929.94;5015721;28;20125;-71
2021/03/01 01:50:10;;;;;;;3.65;3.00;;;;;;;8.89;37.41;101923.94;5014159;28;20054;-71
2021/03/01 01:52:37;;;;;;;12.57;3.42;;;;;;;8.92;37.78;101921.25;5007581;28;20034;-71
2021/03/01 01:55:05;;;;;;;6.60;3.05;;;;;;;8.93;37.34;101922.13;5007656;28;20049;-71
2021/03/01 01:57:32;;;;;;;7.38;2.83;;;;;;;8.89;37.87;101915.25;5006489;28;20584;-71
2021/03/01 01:59:59;;;;;;;5.47;2.70;;;;;;;8.94;37.43;101916.03;5006943;28;21100;-71
2021/03/01 02:02:26;;;;;;;6.78;3.50;;;;;;;8.92;37.46;101912.59;5007822;28;20077;-71
2021/03/01 02:04:59;;;;;;;7.70;3.75;;;;;;;8.92;37.89;101916.06;5007749;28;20061;-72
2021/03/01 02:07:31;;;;;;;7.75;3.10;;;;;;;8.80;37.63;101915.41;5007030;28;20054;-72
2021/03/01 02:10:12;;;;;;;4.47;3.03;;;;;;;8.86;37.79;101912.72;5006307;28;20057;-73
2021/03/01 02:12:58;;;;;;;15.38;5.05;;;;;;;8.82;37.95;101908.44;5006543;28;20131;-72
2021/03/01 02:15:34;;;;;;;5.10;3.42;;;;;;;8.81;37.50;101906.72;5007530;28;20092;-73
2021/03/01 02:18:01;;;;;;;5.88;3.10;;;;;;;8.81;37.73;101904.97;5006188;28;20038;-72
2021/03/01 02:20:27;;;;;;;5.95;3.35;;;;;;;8.84;37.59;101912.75;5007236;28;20506;-72
2021/03/01 02:22:54;;;;;;;6.82;3.15;;;;;;;8.78;37.62;101910.22;5007365;28;21071;-73
2021/03/01 02:25:24;;;;;;;6.38;2.92;;;;;;;8.80;37.71;101903.28;5007066;28;20129;-73
2021/03/01 02:28:01;;;;;;;5.68;3.15;;;;;;;8.82;37.48;101903.22;5007499;28;20048;-72
2021/03/01 02:30:34;;;;;;;8.55;3.10;;;;;;;8.87;37.59;101912.69;5007317;28;20048;-72
2021/03/01 02:33:08;;;;;;;5.05;3.28;;;;;;;8.83;37.67;101900.59;5006607;28;20038;-73
2021/03/01 02:35:40;;;;;;;9.32;3.95;;;;;;;8.83;37.45;101898.00;5007289;28;21877;-73
2021/03/01 02:38:08;;;;;;;4.90;3.10;;;;;;;8.78;37.82;101902.41;5005545;28;20045;-73
2021/03/01 02:40:41;;;;;;;4.78;2.97;;;;;;;8.84;37.33;101904.06;5005596;28;20052;-73
2021/03/01 02:43:11;;;;;;;5.22;3.78;;;;;;;8.73;37.66;101904.22;5005964;28;20041;-73
2021/03/01 02:45:38;;;;;;;5.85;3.47;;;;;;;8.76;37.34;101908.53;5006803;28;20038;-73
2021/03/01 02:48:04;;;;;;;7.22;3.67;;;;;;;8.77;37.40;101905.03;5006412;28;20830;-72
2021/03/01 02:50:31;;;;;;;5.05;3.47;;;;;;;8.79;37.20;101903.28;5005129;28;20084;-72
2021/03/01 02:52:59;;;;;;;8.55;3.47;;;;;;;8.76;37.65;101901.59;5006661;28;20121;-73
2021/03/01 02:55:27;;;;;;;7.45;3.03;;;;;;;8.73;37.72;101901.63;5005719;28;20069;-72
2021/03/01 02:58:07;;;;;;;6.20;3.00;;;;;;;8.67;37.22;101899.13;5006018;28;20050;-72
2021/03/01 03:00:33;;;;;;;4.10;3.00;;;;;;;8.75;37.47;101897.28;5006514;28;20033;-72
2021/03/01 03:03:01;;;;;;;7.00;3.35;;;;;;;8.68;37.07;101900.00;5006434;28;20124;-73
2021/03/01 03:05:28;;;;;;;5.25;3.03;;;;;;;8.74;37.10;101903.38;5005262;28;20125;-73
2021/03/01 03:07:54;;;;;;;3.83;2.92;;;;;;;8.69;37.23;101897.38;5005000;28;20046;-73
2021/03/01 03:10:21;;;;;;;4.50;3.15;;;;;;;8.62;36.72;101895.75;5006070;28;20034;-72
2021/03/01 03:12:48;;;;;;;6.32;3.40;;;;;;;8.57;36.86;101898.41;5005853;28;20048;-72
2021/03/01 03:15:21;;;;;;;16.83;3.33;;;;;;;8.57;37.59;101901.00;5006247;28;20065;-73
2021/03/01 03:17:50;;;;;;;4.57;3.97;;;;;;;8.53;37.63;101906.31;5006014;28;20443;-72
2021/03/01 03:20:17;;;;;;;4.50;3.47;;;;;;;8.32;38.62;101903.09;5005813;28;20034;-72
2021/03/01 03:22:43;;;;;;;6.25;5.18;;;;;;;7.59;40.84;101901.44;5005871;28;20042;-72
2021/03/01 03:25:11;;;;;;;10.88;4.20;;;;;;;7.32;41.79;101906.03;5006159;28;20499;-72
2021/03/01 03:27:38;;;;;;;5.10;3.45;;;;;;;7.29;42.56;101906.06;5006563;28;20074;-74
2021/03/01 03:30:10;;;;;;;7.32;3.67;;;;;;;7.22;43.33;101904.41;5007195;28;20060;-73
2021/03/01 03:32:37;;;;;;;10.63;4.90;;;;;;;7.26;43.77;101903.50;5005820;28;20537;-73
2021/03/01 03:35:07;;;;;;;5.05;4.13;;;;;;;6.89;43.52;101902.13;5007344;28;20092;-73
2021/03/01 03:37:37;;;;;;;10.18;3.83;;;;;;;7.00;43.45;101902.91;5006543;28;20050;-73
2021/03/01 03:40:05;;;;;;;4.82;4.13;;;;;;;6.81;44.41;101908.22;5004922;28;20041;-73
2021/03/01 03:42:34;;;;;;;8.32;4.25;;;;;;;7.02;43.76;101906.31;5005803;28;20041;-73
2021/03/01 03:45:03;;;;;;;8.48;4.68;;;;;;;7.00;44.46;101908.09;5007038;28;20038;-73
2021/03/01 03:47:31;;;;;;;6.82;4.28;;;;;;;6.89;44.87;101904.72;5007011;28;20037;-72
2021/03/01 03:49:59;;;;;;;6.88;4.00;;;;;;;6.79;44.09;101899.59;5005836;28;20140;-73
2021/03/01 03:52:30;;;;;;;5.93;3.83;;;;;;;6.75;44.62;101903.09;5005571;28;20563;-73
2021/03/01 03:54:59;;;;;;;7.07;3.92;;;;;;;6.76;44.92;101901.34;5004561;28;20041;-73
2021/03/01 03:57:28;;;;;;;7.45;4.43;;;;;;;6.66;45.16;101898.00;5005584;28;20048;-73
2021/03/01 03:59:57;;;;;;;6.45;4.20;;;;;;;6.51;44.48;101904.13;5004113;28;20045;-73
2021/03/01 04:02:25;;;;;;;6.35;5.30;;;;;;;6.61;44.66;101904.09;5005872;28;20037;-70
2021/03/01 04:04:53;;;;;;;9.32;5.35;;;;;;;6.62;44.76;101903.22;5005442;28;20069;-72
2021/03/01 04:07:23;;;;;;;8.65;4.72;;;;;;;6.59;45.74;101905.81;5005076;28;20044;-72
2021/03/01 04:09:50;;;;;;;8.82;5.50;;;;;;;6.46;45.52;101903.31;5004885;28;23347;-72
2021/03/01 04:12:18;;;;;;;7.07;3.80;;;;;;;6.43;45.41;101911.09;5005107;28;20415;-72
2021/03/01 04:14:47;;;;;;;5.95;4.10;;;;;;;6.52;45.28;101907.59;5005302;28;20129;-70
2021/03/01 04:17:17;;;;;;;8.77;4.30;;;;;;;6.46;45.47;101905.03;5005002;28;20052;-70
2021/03/01 04:19:45;;;;;;;6.88;4.57;;;;;;;6.39;46.08;101903.34;5004367;28;20041;-70
2021/03/01 04:22:13;;;;;;;5.40;4.55;;;;;;;6.40;46.28;101902.50;5003446;28;20038;-70
2021/03/01 04:24:42;;;;;;;8.85;4.50;;;;;;;6.38;46.42;101904.22;5003976;28;20559;-70
2021/03/01 04:27:10;;;;;;;8.00;4.25;;;;;;;6.38;45.92;101897.31;5003595;28;20037;-70
2021/03/01 04:29:40;;;;;;;6.60;4.35;;;;;;;6.33;46.19;101903.38;5003985;28;20061;-70
2021/03/01 04:32:07;;;;;;;8.65;3.97;;;;;;;6.21;47.07;101894.81;5005142;28;20046;-71
2021/03/01 04:34:34;;;;;;;5.50;4.00;;;;;;;6.32;46.89;101897.34;5004870;28;20391;-72
2021/03/01 04:37:00;;;;;;;6.45;4.75;;;;;;;6.27;46.50;101889.59;5009177;28;20046;-72
2021/03/01 04:39:27;;;;;;;8.73;4.63;;;;;;;6.22;47.53;101896.53;5006982;28;20041;-71
2021/03/01 04:41:53;;;;;;;5.40;4.63;;;;;;;6.19;47.34;101896.56;5012496;28;20044;-71
2021/03/01 04:44:21;;;;;;;6.70;5.10;;;;;;;6.28;46.74;101891.34;5012813;28;20057;-71
2021/03/01 04:46:52;;;;;;;6.88;5.03;;;;;;;6.18;48.07;101894.84;5012668;28;20048;-71
2021/03/01 04:49:21;;;;;;;8.98;5.15;;;;;;;6.19;47.86;101904.34;5012115;28;20096;-70
2021/03/01 04:51:48;;;;;;;7.10;4.97;;;;;;;6.27;47.45;101896.50;5012653;28;20053;-71
2021/03/01 04:54:15;;;;;;;8.48;4.32;;;;;;;6.24;46.79;101899.13;5012062;28;20452;-71
2021/03/01 04:56:45;;;;;;;6.45;5.40;;;;;;;6.23;47.09;101897.38;5012770;28;20048;-70
2021/03/01 04:59:18;;;;;;;5.50;4.90;;;;;;;6.19;47.72;101893.13;5012728;28;20042;-71
2021/03/01 05:01:49;;;;;;;7.13;4.75;;;;;;;6.20;46.93;101897.44;5012862;28;20046;-70
2021/03/01 05:04:17;;;;;;;10.50;5.13;;;;;;;6.18;46.69;101894.84;5012632;28;20489;-71
2021/03/01 05:06:44;;;;;;;5.55;4.15;;;;;;;6.09;46.35;101894.91;5012229;28;20050;-71
2021/03/01 05:09:11;;;;;;;9.25;4.78;;;;;;;6.13;47.11;101895.75;5012572;28;20502;-71
2021/03/01 05:11:38;;;;;;;5.78;4.50;;;;;;;6.23;46.38;101893.09;5012165;28;20038;-70
2021/03/01 05:14:06;;;;;;;7.28;4.28;;;;;;;6.15;47.25;101891.41;5012380;28;20830;-71
2021/03/01 05:16:34;;;;;;;9.05;4.85;;;;;;;6.10;47.04;101890.56;5012113;28;20073;-71
2021/03/01 05:19:01;;;;;;;8.43;5.25;;;;;;;5.89;47.63;101894.94;5012557;28;20497;-71
2021/03/01 05:21:27;;;;;;;6.45;4.60;;;;;;;5.83;47.63;101894.97;5012194;28;20097;-71
2021/03/01 05:23:54;;;;;;;9.32;4.78;;;;;;;5.96;47.34;101890.63;5009329;28;20042;-71
2021/03/01 05:26:21;;;;;;;5.82;4.68;;;;;;;6.04;47.20;101889.75;5005981;28;20128;-71
2021/03/01 05:28:47;;;;;;;10.82;5.13;;;;;;;5.97;47.85;101889.78;5005989;28;20049;-71
2021/03/01 05:31:14;;;;;;;8.23;5.15;;;;;;;5.97;47.63;101885.47;5005875;28;20040;-72
2021/03/01 05:33:42;;;;;;;6.82;4.75;;;;;;;6.05;47.81;101888.00;5004259;28;20098;-72
2021/03/01 05:36:09;;;;;;;12.65;5.90;;;;;;;6.06;47.24;101897.50;5006012;28;20084;-72
2021/03/01 05:38:35;;;;;;;8.07;5.53;;;;;;;5.91;48.07;101905.28;5005725;28;20579;-72
2021/03/01 05:41:05;;;;;;;8.52;4.85;;;;;;;5.82;48.29;101900.16;5005666;28;20572;-72
2021/03/01 05:43:35;;;;;;;10.65;5.13;;;;;;;6.04;47.51;101897.50;5004879;28;20069;-72
2021/03/01 05:46:02;;;;;;;11.30;4.75;;;;;;;5.92;47.09;101907.94;5004497;28;20126;-72
2021/03/01 05:48:29;;;;;;;6.60;4.40;;;;;;;5.90;47.22;101909.59;5006017;28;20451;-72
2021/03/01 05:50:58;;;;;;;11.02;5.30;;;;;;;5.83;47.94;101912.25;5009058;28;20548;-72
2021/03/01 05:53:30;;;;;;;7.57;5.07;;;;;;;5.81;47.79;101909.66;5009148;28;20036;-72
2021/03/01 05:56:00;;;;;;;9.73;5.20;;;;;;;5.72;47.39;101909.69;5009236;28;20052;-72
2021/03/01 05:58:27;;;;;;;7.30;4.82;;;;;;;5.75;46.92;101915.72;5009027;28;20148;-73
2021/03/01 06:01:04;;;;;;;8.95;5.22;;;;;;;5.70;46.91;101917.47;5008889;28;20104;-72
2021/03/01 06:03:32;;;;;;;7.82;4.47;;;;;;;5.91;46.54;101915.63;5006448;28;20042;-73
2021/03/01 06:06:01;;;;;;;25.25;7.70;;;;;;;5.81;47.55;101924.34;5008096;28;20382;-72
2021/03/01 06:08:27;;;;;;;13.90;4.75;;;;;;;5.76;48.00;101924.34;5011528;28;20080;-72
2021/03/01 06:11:02;;;;;;;10.02;5.40;;;;;;;5.77;47.95;101919.16;5014596;28;20052;-72
2021/03/01 06:13:29;;;;;;;9.68;5.18;;;;;;;5.71;47.63;101928.69;5014895;28;20096;-73
2021/03/01 06:15:57;;;;;;;13.65;6.03;;;;;;;5.87;47.59;101924.31;5015197;28;20057;-72
2021/03/01 06:18:25;;;;;;;9.50;6.15;;;;;;;5.88;47.56;101926.03;5014942;28;20049;-72
2021/03/01 06:20:53;;;;;;;7.60;5.40;;;;;;;5.81;46.91;101932.09;5014363;28;20046;-73
2021/03/01 06:23:31;;;;;;;10.40;6.40;;;;;;;6.04;46.75;101932.88;5014252;28;20052;-73
2021/03/01 06:26:20;;;;;;;14.40;4.55;;;;;;;6.13;46.71;101939.75;5014814;28;20045;-71
2021/03/01 06:28:47;;;;;;;9.40;6.00;;;;;;;5.90;46.38;101945.84;5012978;28;20112;-71
2021/03/01 06:31:33;;;;;;;8.75;5.45;;;;;;;6.03;46.56;101941.53;5012042;28;20528;-71
2021/03/01 06:34:22;;;;;;;8.88;6.10;;;;;;;6.34;46.40;101939.66;5011886;28;20038;-70
2021/03/01 06:37:12;;;;;;;6.55;5.18;;;;;;;6.66;45.16;101942.06;5014890;28;20042;-71
2021/03/01 06:39:42;;;;;;;16.08;6.35;;;;;;;6.94;44.63;101944.44;5013667;28;20050;-71
2021/03/01 06:42:30;;;;;;;10.13;5.88;;;;;;;7.27;43.87;101957.09;5014354;28;20048;-71
2021/03/01 06:44:56;;;;;;;9.88;5.30;;;;;;;7.50;43.71;101945.63;5012528;28;20048;-72
2021/03/01 06:47:51;;;;;;;6.50;5.75;;;;;;;7.75;43.31;101944.50;5014353;28;20370;-70
2021/03/01 06:50:34;;;;;;;11.38;4.80;;;;;;;8.23;42.51;101949.13;5008494;28;20069;-71
2021/03/01 06:53:01;;;;;;;8.75;5.10;;;;;;;8.71;42.52;101952.81;5010119;28;20127;-72
2021/03/01 06:55:28;;;;;;;9.68;6.00;;;;;;;9.45;40.24;101955.91;5013442;28;20046;-72
2021/03/01 06:57:55;;;;;;;9.65;5.55;;;;;;;9.85;39.75;101962.09;5014391;28;20050;-73
2021/03/01 07:00:27;;;;;;;17.02;6.18;;;;;;;10.08;38.83;101954.69;5013136;28;20560;-74
2021/03/01 07:02:54;;;;;;;9.82;5.15;;;;;;;10.56;37.94;101964.13;5012976;28;20037;-77
2021/03/01 07:05:22;;;;;;;14.95;6.75;;;;;;;10.85;37.19;101956.47;5011747;28;20568;-74
2021/03/01 07:07:49;;;;;;;10.77;6.13;;;;;;;11.27;36.87;101958.91;5011523;28;20100;-75
2021/03/01 07:10:15;;;;;;;19.25;6.90;;;;;;;10.80;37.34;101963.53;5013666;28;20045;-76
2021/03/01 07:12:48;;;;;;;11.07;5.47;;;;;;;11.23;37.06;101968.56;5013269;28;20061;-73
2021/03/01 07:15:16;;;;;;;7.72;5.90;;;;;;;12.03;36.16;101962.09;5013322;28;20073;-75
2021/03/01 07:17:45;;;;;;;15.75;8.70;;;;;;;12.13;35.68;101959.22;5013193;28;20054;-76
2021/03/01 07:20:14;;;;;;;9.05;5.22;;;;;;;12.65;35.31;101962.88;5012906;28;20045;-71
2021/03/01 07:22:43;;;;;;;12.18;5.70;;;;;;;12.92;34.24;101962.00;5009025;28;20125;-71
2021/03/01 07:25:14;;;;;;;26.73;7.40;;;;;;;13.23;33.80;101963.63;5012032;28;20049;-73
2021/03/01 07:27:43;;;;;;;13.65;5.20;;;;;;;13.57;32.74;101969.41;5010334;28;20100;-67
2021/03/01 07:30:11;;;;;;;8.65;4.70;;;;;;;13.24;32.75;101966.19;5012974;28;20129;-66
2021/03/01 07:32:39;;;;;;;14.88;5.32;;;;;;;13.88;32.32;101965.69;5013383;28;20069;-68
2021/03/01 07:35:08;;;;;;;14.35;6.75;;;;;;;14.48;30.97;101964.31;5012675;28;20056;-69
2021/03/01 07:37:36;;;;;;;17.35;6.57;;;;;;;14.53;31.26;101956.28;5013326;28;20042;-66
2021/03/01 07:40:05;;;;;;;20.73;5.90;;;;;;;15.34;30.60;101960.81;5008043;28;20042;-70
2021/03/01 07:42:34;;;;;;;20.77;5.78;;;;;;;15.66;30.35;101956.84;5011049;28;20042;-69
2021/03/01 07:45:02;;;;;;;12.13;6.35;;;;;;;15.86;30.20;101954.16;5006324;28;20069;-70
2021/03/01 07:47:29;;;;;;;16.02;6.13;;;;;;;15.78;30.31;101960.72;5012575;28;20042;-71
2021/03/01 07:49:56;;;;;;;14.77;4.63;;;;;;;16.33;29.93;101961.66;5012438;28;20072;-71
2021/03/01 07:52:29;;;;;;;15.40;4.97;;;;;;;16.33;29.31;101958.19;5007380;28;20121;-71
2021/03/01 07:55:05;;;;;;;14.75;4.90;;;;;;;16.15;29.56;101967.78;5004047;28;20033;-69
2021/03/01 07:57:34;;;;;;;9.10;6.47;;;;;;;15.81;29.60;101968.44;5003919;28;20114;-69
2021/03/01 08:00:22;;;;;;;13.90;5.93;;;;;;;14.59;32.30;101969.16;5003343;28;20551;-69
2021/03/01 08:02:48;;;;;;;6.70;5.30;;;;;;;14.73;31.75;101966.84;5004275;28;20042;-75
2021/03/01 08:05:25;;;;;;;9.07;5.95;;;;;;;15.32;32.04;101968.78;5005174;28;20052;-77
2021/03/01 08:07:53;;;;;;;13.65;5.25;;;;;;;15.31;31.98;101968.84;5008872;28;20089;-74
2021/03/01 08:10:39;;;;;;;10.35;6.43;;;;;;;14.86;32.54;101968.06;5011552;28;20133;-76
2021/03/01 08:13:08;;;;;;;8.90;5.47;;;;;;;14.52;33.18;101960.66;5003728;28;20543;-74
2021/03/01 08:15:42;;;;;;;9.18;5.22;;;;;;;14.61;32.34;101970.81;5002740;28;20042;-74
2021/03/01 08:18:09;;;;;;;;;;;;;;;14.75;32.60;101972.88;5004221;28;20080;-72
2021/03/01 08:20:39;;;;;;;9.73;6.53;;;;;;;15.22;32.68;101975.34;5005204;28;19975;-75
2021/03/01 08:23:10;;;;;;;15.45;5.85;;;;;;;15.10;33.13;101976.72;5003858;28;20499;-72
2021/03/01 08:25:43;;;;;;;7.43;5.97;;;;;;;15.60;32.65;101975.47;5009929;28;20041;-74
2021/03/01 08:28:24;;;;;;;12.20;7.68;;;;;;;15.33;33.05;101980.13;5011916;28;20443;-70
2021/03/01 08:30:55;;;;;;;9.82;5.30;;;;;;;16.28;32.13;101979.44;5011962;28;20054;-71
2021/03/01 08:33:26;;;;;;;18.67;6.95;;;;;;;15.84;33.10;101978.84;5011829;28;20518;-71
2021/03/01 08:36:13;;;;;;;13.90;6.95;;;;;;;16.08;32.63;101975.09;5011026;28;20042;-73
2021/03/01 08:38:42;;;;;;;14.35;6.82;;;;;;;15.81;33.75;101976.34;5003242;28;20496;-70
2021/03/01 08:41:39;;;;;;;11.30;7.15;;;;;;;16.52;32.71;101972.19;5011710;28;20040;-69
2021/03/01 08:44:33;;;;;;;11.40;7.38;;;;;;;18.06;30.85;101971.47;5011632;28;20562;-68
2021/03/01 08:47:03;;;;;;;14.90;8.10;;;;;;;18.07;30.52;101970.53;5005143;28;20034;-80
2021/03/01 08:49:29;;;;;;;12.18;7.45;;;;;;;17.95;31.07;101971.16;5011161;28;20108;-69
2021/03/01 08:51:56;;;;;;;13.60;8.27;;;;;;;19.19;29.22;101969.53;5011562;28;20041;-71
2021/03/01 08:54:32;;;;;;;14.80;8.40;;;;;;;19.05;29.10;101971.16;5012115;28;20116;-70
2021/03/01 08:57:07;;;;;;;17.73;9.25;;;;;;;19.48;28.80;101965.97;4994326;28;20041;-66
2021/03/01 08:59:34;;;;;;;14.52;7.93;;;;;;;18.98;29.10;101963.69;5009265;28;20142;-65
2021/03/01 09:02:01;;;;;;;11.82;9.65;;;;;;;19.58;28.41;101966.28;5010649;28;20060;-66
2021/03/01 09:04:27;;;;;;;9.55;8.40;;;;;;;19.94;27.47;101965.00;5009842;28;20045;-66
2021/03/01 09:07:05;;;;;;;19.50;8.00;;;;;;;19.95;27.49;101964.06;5009765;28;20052;-67
2021/03/01 09:09:51;;;;;;;14.27;8.55;;;;;;;19.53;28.37;101971.00;5009722;28;20659;-68
2021/03/01 09:12:19;;;;;;;16.17;9.40;;;;;;;19.11;28.04;101969.94;5009619;28;20048;-66
2021/03/01 09:14:47;;;;;;;18.88;8.93;;;;;;;19.22;27.30;101974.59;5008928;28;20149;-67
2021/03/01 09:17:14;;;;;;;14.82;8.35;;;;;;;19.18;28.24;101973.09;5010354;28;20041;-66
2021/03/01 09:19:40;;;;;;;14.10;7.15;;;;;;;18.97;27.96;101967.28;5009894;28;20038;-66
2021/03/01 09:22:07;;;;;;;18.67;8.80;;;;;;;18.18;29.67;101965.50;5009934;28;20052;-65
2021/03/01 09:24:37;;;;;;;11.02;7.13;;;;;;;17.81;30.26;101974.56;5009822;28;20046;-65
2021/03/01 09:27:03;;;;;;;10.05;7.50;;;;;;;17.94;30.16;101975.59;5011321;28;20065;-65
2021/03/01 09:29:32;;;;;;;8.75;6.63;;;;;;;16.87;31.59;101982.81;5013186;28;20046;-66
2021/03/01 09:31:58;;;;;;;14.40;5.80;;;;;;;16.84;30.07;101972.47;5013566;28;20124;-67
2021/03/01 09:34:28;;;;;;;12.48;6.75;;;;;;;16.21;29.80;101975.41;5011299;28;20519;-68
2021/03/01 09:37:11;;;;;;;11.88;6.75;;;;;;;15.90;29.92;101973.31;5010957;28;20069;-67
2021/03/01 09:39:42;;;;;;;28.80;8.20;;;;;;;15.81;31.14;101971.94;5013529;28;20136;-68
2021/03/01 09:42:09;;;;;;;11.90;7.40;;;;;;;15.65;32.32;101978.78;5013243;28;20046;-68
2021/03/01 09:44:37;;;;;;;11.00;7.28;;;;;;;15.47;32.18;101972.53;5013261;28;20040;-67
2021/03/01 09:47:06;;;;;;;13.52;6.95;;;;;;;15.20;32.95;101978.03;5013018;28;20049;-68
2021/03/01 09:49:34;;;;;;;16.58;7.57;;;;;;;14.90;33.99;101979.28;5013311;28;20042;-68
2021/03/01 09:52:01;;;;;;;17.17;8.15;;;;;;;15.04;33.95;101973.47;5012583;28;20524;-68
2021/03/01 09:54:29;;;;;;;10.00;7.65;;;;;;;14.91;33.48;101981.00;5012966;28;20038;-67
2021/03/01 09:57:02;;;;;;;18.08;8.65;;;;;;;14.93;33.23;101981.81;5012866;28;20421;-67
2021/03/01 09:59:47;;;;;;;14.13;8.20;;;;;;;14.33;33.16;101984.13;5010492;28;20048;-66
2021/03/01 10:02:15;;;;;;;10.65;6.85;;;;;;;14.56;33.92;101980.63;5013994;28;20100;-66
2021/03/01 10:04:44;;;;;;;14.95;7.75;;;;;;;14.46;32.62;101984.50;5012882;28;20092;-67
2021/03/01 10:07:28;;;;;;;10.60;7.43;;;;;;;14.60;32.57;101982.25;5010798;28;20050;-68
2021/03/01 10:09:56;;;;;;;10.95;7.57;;;;;;;14.80;32.39;101989.31;5012450;28;20050;-67
2021/03/01 10:12:24;;;;;;;11.38;7.28;;;;;;;14.66;31.57;101982.00;5012633;28;20408;-66
2021/03/01 10:14:59;;;;;;;13.82;8.05;;;;;;;14.72;31.90;101985.28;5013380;28;20038;-68
2021/03/01 10:17:28;;;;;;;9.43;7.03;;;;;;;14.57;32.32;101986.75;5014801;28;20136;-65
2021/03/01 10:20:07;;;;;;;9.93;7.13;;;;;;;14.45;32.16;101988.03;5014161;28;20056;-65
2021/03/01 10:23:05;;;;;;;12.52;7.38;;;;;;;14.46;32.59;101981.88;5014811;28;20490;-68
2021/03/01 10:25:39;;;;;;;10.43;6.55;;;;;;;14.53;32.01;101983.38;5011112;28;20056;-68
2021/03/01 10:28:27;;;;;;;9.02;6.22;;;;;;;14.57;32.00;101984.13;5011954;28;20034;-68
2021/03/01 10:31:06;;;;;;;10.90;7.38;;;;;;;14.50;32.24;101986.13;5014056;28;20057;-68
2021/03/01 10:33:54;;;;;;;10.38;7.40;;;;;;;14.57;32.28;101984.13;5014095;28;20517;-68
2021/03/01 10:36:47;;;;;;;9.52;6.78;;;;;;;14.28;32.60;101987.84;5014482;28;20045;-68
2021/03/01 10:39:44;;;;;;;9.65;6.57;;;;;;;14.46;31.41;101983.66;5013927;28;20057;-70
2021/03/01 10:42:22;;;;;;;19.23;6.85;;;;;;;14.56;31.58;101983.25;5011769;28;20440;-67
2021/03/01 10:44:56;;;;;;;8.43;6.50;;;;;;;14.44;31.05;101980.25;5014195;28;20492;-67
2021/03/01 10:47:24;;;;;;;8.70;6.20;;;;;;;14.45;30.71;101987.19;5009411;28;20050;-68
2021/03/01 10:49:55;;;;;;;8.93;6.47;;;;;;;14.28;31.00;101985.22;5013570;28;20380;-67
2021/03/01 10:52:24;;;;;;;8.85;5.88;;;;;;;14.29;31.00;101981.66;5012845;28;20088;-68
2021/03/01 10:54:53;;;;;;;7.80;6.07;;;;;;;14.29;30.02;101982.53;5006889;28;20066;-70
2021/03/01 10:57:19;;;;;;;8.82;6.28;;;;;;;14.14;30.55;101989.19;5007053;28;20037;-70
2021/03/01 10:59:50;;;;;;;10.45;6.15;;;;;;;14.25;30.22;101983.53;5005075;28;20075;-69
2021/03/01 11:02:21;;;;;;;11.98;6.55;;;;;;;14.16;30.01;101986.50;5007070;28;20115;-70
2021/03/01 11:04:48;;;;;;;8.88;6.47;;;;;;;13.98;29.85;101984.56;5006917;28;20050;-71
2021/03/01 11:07:15;;;;;;;9.25;5.55;;;;;;;14.35;29.64;101971.78;5006596;28;20050;-63
2021/03/01 11:09:42;;;;;;;9.20;6.22;;;;;;;14.28;29.48;101974.72;5007039;28;20046;-67
2021/03/01 11:12:09;;;;;;;8.98;6.18;;;;;;;14.43;29.60;101961.00;5008004;28;20072;-68
2021/03/01 11:14:35;;;;;;;10.30;6.15;;;;;;;14.45;28.54;101964.44;5009090;28;20070;-71
2021/03/01 11:17:06;;;;;;;7.72;5.05;;;;;;;14.53;28.99;101966.78;5007084;28;20052;-72
2021/03/01 11:19:33;;;;;;;10.23;5.20;;;;;;;14.32;29.76;101968.41;5004900;28;20042;-72
2021/03/01 11:21:59;;;;;;;8.68;5.40;;;;;;;14.16;29.00;101969.00;5003894;28;20069;-72
2021/03/01 11:24:26;;;;;;;7.47;5.05;;;;;;;14.13;28.74;101957.78;5005256;28;20326;-71
2021/03/01 11:26:53;;;;;;;9.68;6.22;;;;;;;14.29;29.11;101963.31;5004817;28;20484;-72
2021/03/01 11:29:20;;;;;;;6.82;5.20;;;;;;;14.13;28.87;101957.78;5004576;28;20097;-72
2021/03/01 11:31:48;;;;;;;11.05;6.72;;;;;;;14.15;28.94;101956.81;5004638;28;20104;-72
2021/03/01 11:34:18;;;;;;;6.72;5.57;;;;;;;14.30;29.03;101946.66;5005514;28;20096;-72
2021/03/01 11:36:44;;;;;;;7.13;5.57;;;;;;;14.31;28.82;101943.09;5007022;28;20057;-72
2021/03/01 11:39:14;;;;;;;8.50;5.28;;;;;;;14.16;27.84;101937.53;5004962;28;20099;-71
2021/03/01 11:41:41;;;;;;;9.65;5.72;;;;;;;14.28;28.71;101936.22;5006767;28;20399;-72